createdAt,value
2022-11-12T00:00:43.119Z,12.68
2022-11-12T00:03:28.481Z,12.83
2022-11-12T00:06:14.094Z,12.88
2022-11-12T00:08:59.575Z,12.87
2022-11-12T00:11:45.163Z,12.92
2022-11-12T00:14:30.470Z,12.83
2022-11-12T00:17:16.010Z,12.70
2022-11-12T00:20:01.571Z,12.79
2022-11-12T00:22:46.710Z,12.91
2022-11-12T00:25:32.213Z,12.62
2022-11-12T00:28:17.715Z,12.76
2022-11-12T00:31:08.378Z,12.91
2022-11-12T00:33:55.091Z,12.44
2022-11-12T00:36:40.312Z,12.09
2022-11-12T00:39:25.718Z,12.34
2022-11-12T00:42:11.360Z,12.31
2022-11-12T00:44:56.651Z,12.51
2022-11-12T00:47:42.289Z,12.31
2022-11-12T00:50:27.692Z,12.12
2022-11-12T00:53:13.579Z,11.96
2022-11-12T00:56:06.660Z,12.09
2022-11-12T00:58:51.800Z,11.95
2022-11-12T01:01:37.212Z,12.25
2022-11-12T01:04:23.020Z,12.55
2022-11-12T01:07:08.051Z,12.11
2022-11-12T01:09:53.397Z,11.97
2022-11-12T01:12:38.682Z,12.01
2022-11-12T01:15:24.268Z,12.10
2022-11-12T01:18:09.944Z,12.06
2022-11-12T01:20:55.626Z,11.97
2022-11-12T01:23:42.402Z,11.86
2022-11-12T01:26:31.372Z,11.92
2022-11-12T01:29:16.576Z,11.93
2022-11-12T01:32:02.065Z,11.94
2022-11-12T01:34:47.522Z,11.97
2022-11-12T01:37:32.925Z,11.70
2022-11-12T01:40:18.463Z,11.84
2022-11-12T01:43:05.541Z,11.69
2022-11-12T01:45:51.578Z,11.68
2022-11-12T01:48:47.862Z,11.77
2022-11-12T01:51:37.468Z,11.95
2022-11-12T01:54:23.264Z,11.88
2022-11-12T01:57:09.951Z,11.96
2022-11-12T02:00:00.601Z,11.98
2022-11-12T02:02:52.217Z,11.92
2022-11-12T02:05:38.836Z,11.93
2022-11-12T02:08:25.377Z,11.94
2022-11-12T02:11:19.512Z,11.95
2022-11-12T02:14:05.477Z,12.00
2022-11-12T02:16:50.978Z,12.00
2022-11-12T02:19:37.775Z,11.90
2022-11-12T02:22:23.414Z,11.97
2022-11-12T02:25:12.299Z,11.95
2022-11-12T02:27:58.891Z,12.01
2022-11-12T02:30:47.099Z,12.13
2022-11-12T02:33:32.354Z,12.19
2022-11-12T02:36:17.666Z,12.04
2022-11-12T02:39:05.305Z,12.02
2022-11-12T02:41:50.569Z,11.85
2022-11-12T02:44:36.181Z,12.04
2022-11-12T02:47:21.448Z,11.89
2022-11-12T02:50:07.334Z,11.89
2022-11-12T02:52:52.572Z,12.03
2022-11-12T02:55:38.248Z,12.03
2022-11-12T02:58:23.747Z,11.74
2022-11-12T03:01:09.752Z,11.87
2022-11-12T03:03:55.596Z,11.84
2022-11-12T03:06:41.098Z,11.80
2022-11-12T03:09:26.482Z,11.83
2022-11-12T03:12:11.851Z,11.80
2022-11-12T03:14:57.516Z,11.68
2022-11-12T03:17:43.116Z,11.69
2022-11-12T03:20:29.875Z,11.76
2022-11-12T03:23:15.155Z,11.59
2022-11-12T03:26:03.046Z,11.91
2022-11-12T03:28:48.774Z,11.93
2022-11-12T03:31:35.367Z,11.74
2022-11-12T03:34:20.569Z,11.67
2022-11-12T03:37:09.505Z,11.71
2022-11-12T03:39:55.021Z,11.92
2022-11-12T03:42:45.289Z,11.66
2022-11-12T03:45:30.928Z,12.14
2022-11-12T03:48:16.107Z,12.17
2022-11-12T03:51:01.789Z,12.05
2022-11-12T03:53:47.300Z,12.22
2022-11-12T03:56:32.534Z,12.20
2022-11-12T03:59:17.909Z,12.18
2022-11-12T04:02:03.435Z,11.61
2022-11-12T04:05:07.308Z,11.74
2022-11-12T04:08:18.607Z,12.07
2022-11-12T04:11:13.113Z,11.53
2022-11-12T04:13:59.002Z,11.49
2022-11-12T04:17:02.891Z,11.35
2022-11-12T04:20:06.719Z,11.81
2022-11-12T04:22:52.002Z,11.81
2022-11-12T04:25:56.294Z,11.87
2022-11-12T04:29:01.727Z,11.87
2022-11-12T04:31:47.106Z,11.68
2022-11-12T04:34:34.464Z,11.48
2022-11-12T04:37:23.521Z,11.55
2022-11-12T04:40:48.498Z,11.49
2022-11-12T04:43:52.523Z,11.59
2022-11-12T04:46:37.797Z,11.77
2022-11-12T04:49:23.068Z,11.86
2022-11-12T04:52:09.365Z,11.99
2022-11-12T04:54:55.013Z,11.72
2022-11-12T04:57:40.222Z,11.61
2022-11-12T05:00:26.015Z,11.66
2022-11-12T05:03:11.395Z,11.66
2022-11-12T05:06:04.228Z,11.92
2022-11-12T05:08:49.727Z,11.69
2022-11-12T05:11:35.330Z,11.91
2022-11-12T05:14:21.716Z,11.95
2022-11-12T05:17:07.397Z,11.97
2022-11-12T05:19:52.672Z,11.89
2022-11-12T05:22:47.868Z,11.67
2022-11-12T05:25:39.817Z,11.93
2022-11-12T05:28:25.401Z,11.74
2022-11-12T05:31:10.976Z,11.89
2022-11-12T05:33:56.560Z,11.42
2022-11-12T05:36:41.783Z,11.07
2022-11-12T05:39:27.108Z,11.05
2022-11-12T05:42:14.098Z,11.17
2022-11-12T05:44:59.793Z,11.19
2022-11-12T05:47:45.339Z,10.98
2022-11-12T05:50:39.795Z,11.16
2022-11-12T05:53:30.769Z,11.23
2022-11-12T05:56:16.716Z,11.18
2022-11-12T05:59:03.837Z,11.28
2022-11-12T06:01:49.575Z,11.23
2022-11-12T06:04:35.085Z,11.21
2022-11-12T06:07:21.918Z,11.29
2022-11-12T06:10:08.003Z,11.36
2022-11-12T06:12:53.671Z,11.16
2022-11-12T06:15:39.612Z,11.13
2022-11-12T06:18:26.073Z,11.40
2022-11-12T06:21:24.245Z,11.39
2022-11-12T06:24:10.048Z,11.32
2022-11-12T06:26:55.532Z,11.44
2022-11-12T06:29:40.908Z,11.31
2022-11-12T06:32:26.357Z,11.40
2022-11-12T06:35:11.853Z,11.48
2022-11-12T06:37:57.624Z,11.53
2022-11-12T06:40:43.123Z,11.38
2022-11-12T06:43:30.838Z,11.56
2022-11-12T06:46:17.346Z,11.55
2022-11-12T06:49:02.638Z,11.55
2022-11-12T06:51:50.493Z,11.26
2022-11-12T06:54:35.558Z,11.23
2022-11-12T06:57:21.085Z,10.87
2022-11-12T07:00:07.623Z,11.16
2022-11-12T07:02:53.160Z,11.10
2022-11-12T07:05:39.227Z,11.22
2022-11-12T07:08:25.261Z,11.25
2022-11-12T07:11:11.473Z,11.22
2022-11-12T07:13:56.906Z,10.99
2022-11-12T07:16:42.795Z,11.02
2022-11-12T07:19:28.291Z,10.86
2022-11-12T07:22:13.676Z,11.08
2022-11-12T07:24:59.073Z,11.06
2022-11-12T07:27:44.859Z,10.91
2022-11-12T07:30:29.850Z,10.93
2022-11-12T07:33:15.245Z,11.06
2022-11-12T07:36:10.040Z,11.11
2022-11-12T07:38:55.272Z,11.01
2022-11-12T07:41:40.645Z,11.20
2022-11-12T07:44:26.952Z,11.11
2022-11-12T07:47:12.355Z,11.41
2022-11-12T07:49:57.799Z,11.55
2022-11-12T07:52:43.262Z,12.51
2022-11-12T07:55:28.919Z,14.44
2022-11-12T07:58:14.416Z,15.47
2022-11-12T08:01:11.272Z,15.19
2022-11-12T08:03:58.640Z,14.32
2022-11-12T08:06:44.692Z,13.90
2022-11-12T08:09:29.874Z,14.31
2022-11-12T08:12:15.376Z,16.16
2022-11-12T08:15:00.605Z,18.15
2022-11-12T08:17:46.262Z,19.74
2022-11-12T08:20:31.948Z,20.60
2022-11-12T08:23:17.119Z,19.22
2022-11-12T08:26:07.425Z,17.95
2022-11-12T08:28:53.601Z,15.85
2022-11-12T08:31:43.830Z,14.92
2022-11-12T08:34:29.456Z,13.71
2022-11-12T08:37:14.815Z,13.41
2022-11-12T08:40:00.278Z,13.15
2022-11-12T08:42:45.735Z,12.88
2022-11-12T08:45:36.722Z,12.56
2022-11-12T08:48:22.063Z,12.47
2022-11-12T08:51:07.944Z,12.51
2022-11-12T08:53:53.561Z,12.14
2022-11-12T08:56:39.892Z,12.56
2022-11-12T08:59:26.043Z,12.42
2022-11-12T09:02:13.027Z,13.05
2022-11-12T09:04:58.762Z,12.84
2022-11-12T09:07:49.837Z,12.69
2022-11-12T09:10:36.753Z,12.65
2022-11-12T09:13:22.036Z,13.03
2022-11-12T09:16:07.900Z,12.85
2022-11-12T09:18:53.672Z,13.07
2022-11-12T09:21:38.792Z,13.94
2022-11-12T09:24:24.183Z,14.33
2022-11-12T09:27:09.766Z,13.86
2022-11-12T09:29:55.430Z,14.40
2022-11-12T09:32:41.162Z,13.74
2022-11-12T09:35:26.740Z,13.68
2022-11-12T09:38:14.777Z,13.33
2022-11-12T09:41:13.251Z,13.74
2022-11-12T09:44:04.475Z,13.62
2022-11-12T09:46:57.373Z,14.42
2022-11-12T09:49:51.902Z,14.13
2022-11-12T09:52:37.437Z,14.45
2022-11-12T09:55:28.712Z,13.94
2022-11-12T09:58:16.559Z,13.71
2022-11-12T10:01:11.383Z,14.21
2022-11-12T10:04:18.243Z,14.10
2022-11-12T10:07:13.858Z,14.27
2022-11-12T10:10:30.301Z,14.23
2022-11-12T10:13:37.459Z,14.21
2022-11-12T10:16:45.230Z,14.26
2022-11-12T10:19:39.832Z,14.22
2022-11-12T10:22:43.212Z,14.41
2022-11-12T10:25:28.423Z,14.58
2022-11-12T10:28:38.197Z,14.23
2022-11-12T10:31:24.600Z,14.55
2022-11-12T10:34:26.548Z,14.72
2022-11-12T10:37:43.896Z,14.71
2022-11-12T10:40:37.048Z,15.19
2022-11-12T10:43:31.850Z,14.84
2022-11-12T10:46:42.435Z,14.72
2022-11-12T10:49:27.988Z,15.25
2022-11-12T10:52:24.527Z,14.71
2022-11-12T10:55:19.858Z,14.98
2022-11-12T10:58:11.501Z,14.79
2022-11-12T11:04:52.817Z,15.51
2022-11-12T11:07:38.484Z,15.64
2022-11-12T11:10:29.467Z,15.53
2022-11-12T11:13:25.996Z,15.75
2022-11-12T11:16:26.941Z,15.70
2022-11-12T11:19:12.856Z,15.59
2022-11-12T11:22:07.585Z,15.88
2022-11-12T11:25:28.852Z,15.76
2022-11-12T11:28:39.959Z,15.81
2022-11-12T11:31:50.493Z,16.19
2022-11-12T11:34:55.014Z,16.17
2022-11-12T11:37:52.285Z,15.85
2022-11-12T11:41:05.238Z,16.13
2022-11-12T11:43:53.846Z,15.96
2022-11-12T11:46:54.878Z,16.17
2022-11-12T11:50:28.306Z,16.40
2022-11-12T11:53:22.158Z,16.02
2022-11-12T11:56:19.339Z,16.19
2022-11-12T11:59:38.106Z,16.56
2022-11-12T12:03:06.659Z,16.64
2022-11-12T12:06:16.225Z,16.72
2022-11-12T12:09:11.997Z,16.49
2022-11-12T12:12:24.507Z,16.52
2022-11-12T12:15:42.949Z,17.00
2022-11-12T12:18:33.007Z,16.80
2022-11-12T12:21:24.735Z,16.87
2022-11-12T12:24:28.428Z,16.49
2022-11-12T12:27:20.979Z,17.20
2022-11-12T12:30:19.184Z,16.95
2022-11-12T12:33:12.839Z,17.08
2022-11-12T12:36:21.353Z,16.85
2022-11-12T12:39:27.915Z,17.25
2022-11-12T12:42:23.961Z,17.42
2022-11-12T12:45:36.300Z,17.41
2022-11-12T12:48:29.088Z,17.52
2022-11-12T12:51:15.415Z,17.61
2022-11-12T12:54:01.487Z,17.49
2022-11-12T12:56:51.773Z,17.67
2022-11-12T12:59:44.854Z,17.56
2022-11-12T13:02:49.991Z,17.18
2022-11-12T13:05:43.871Z,17.25
2022-11-12T13:08:41.357Z,17.33
2022-11-12T13:12:06.541Z,17.17
2022-11-12T13:15:08.366Z,17.23
2022-11-12T13:17:56.037Z,17.63
2022-11-12T13:20:44.913Z,17.39
2022-11-12T13:24:04.862Z,17.75
2022-11-12T13:27:02.970Z,17.96
2022-11-12T13:29:55.554Z,18.00
2022-11-12T13:32:49.829Z,17.98
2022-11-12T13:35:37.122Z,17.90
2022-11-12T13:38:25.038Z,18.04
2022-11-12T13:41:43.196Z,18.14
2022-11-12T13:44:34.452Z,17.58
2022-11-12T13:47:22.184Z,18.01
2022-11-12T13:50:10.263Z,17.76
2022-11-12T13:52:56.153Z,18.08
2022-11-12T13:55:49.736Z,18.15
2022-11-12T13:58:36.834Z,17.92
2022-11-12T14:01:24.334Z,18.02
2022-11-12T14:04:22.220Z,17.98
2022-11-12T14:07:40.570Z,18.08
2022-11-12T14:11:35.483Z,18.10
2022-11-12T14:14:58.927Z,17.86
2022-11-12T14:18:41.357Z,18.32
2022-11-12T14:21:30.407Z,18.03
2022-11-12T14:24:17.068Z,17.69
2022-11-12T14:27:04.401Z,17.97
2022-11-12T14:30:10.696Z,18.06
2022-11-12T14:33:12.129Z,18.06
2022-11-12T14:36:22.793Z,18.15
2022-11-12T14:39:17.647Z,17.83
2022-11-12T14:42:21.109Z,18.12
2022-11-12T14:45:35.161Z,18.08
2022-11-12T14:48:22.052Z,18.04
2022-11-12T14:51:12.255Z,18.06
2022-11-12T14:54:07.935Z,18.83
2022-11-12T14:57:00.224Z,19.00
2022-11-12T14:59:47.344Z,18.84
2022-11-12T15:02:50.303Z,18.71
2022-11-12T15:05:54.634Z,18.45
2022-11-12T15:08:40.588Z,18.19
2022-11-12T15:11:28.780Z,17.95
2022-11-12T15:14:21.977Z,18.01
2022-11-12T15:17:07.318Z,18.03
2022-11-12T15:20:01.884Z,18.12
2022-11-12T15:22:57.117Z,18.01
2022-11-12T15:25:47.843Z,18.04
2022-11-12T15:28:33.874Z,17.98
2022-11-12T15:31:22.167Z,17.93
2022-11-12T15:34:28.545Z,17.86
2022-11-12T15:37:20.290Z,17.80
2022-11-12T15:40:16.266Z,17.75
2022-11-12T15:43:02.278Z,17.79
2022-11-12T15:45:49.815Z,17.84
2022-11-12T15:51:55.077Z,17.75
2022-11-12T15:54:51.477Z,17.67
2022-11-12T15:57:54.744Z,17.63
2022-11-12T16:00:44.616Z,17.54
2022-11-12T16:03:31.447Z,17.54
2022-11-12T16:06:16.975Z,17.52
2022-11-12T16:09:02.467Z,17.61
2022-11-12T16:11:50.552Z,17.63
2022-11-12T16:14:54.444Z,17.66
2022-11-12T16:17:54.750Z,17.66
2022-11-12T16:20:44.429Z,17.64
2022-11-12T16:23:55.878Z,17.66
2022-11-12T16:26:52.062Z,17.64
2022-11-12T16:29:51.894Z,17.54
2022-11-12T16:32:38.192Z,17.48
2022-11-12T16:35:23.764Z,17.37
2022-11-12T16:38:16.747Z,17.25
2022-11-12T16:41:02.457Z,17.17
2022-11-12T16:43:48.242Z,17.15
2022-11-12T16:46:42.146Z,17.19
2022-11-12T16:49:27.853Z,17.32
2022-11-12T16:52:51.681Z,17.18
2022-11-12T16:55:37.521Z,17.15
2022-11-12T16:58:32.082Z,17.32
2022-11-12T17:01:34.291Z,17.32
2022-11-12T17:04:19.479Z,17.18
2022-11-12T17:07:08.247Z,17.13
2022-11-12T17:09:53.918Z,17.07
2022-11-12T17:12:39.398Z,16.91
2022-11-12T17:15:25.077Z,16.86
2022-11-12T17:18:10.589Z,16.89
2022-11-12T17:20:56.579Z,16.81
2022-11-12T17:23:42.391Z,16.74
2022-11-12T17:26:27.982Z,16.75
2022-11-12T17:29:13.225Z,16.74
2022-11-12T17:31:58.679Z,16.74
2022-11-12T17:34:44.160Z,16.77
2022-11-12T17:37:29.558Z,16.66
2022-11-12T17:40:15.410Z,16.58
2022-11-12T17:43:00.976Z,16.52
2022-11-12T17:45:51.257Z,16.51
2022-11-12T17:48:37.453Z,16.49
2022-11-12T17:51:24.649Z,16.44
2022-11-12T17:54:10.368Z,16.44
2022-11-12T17:56:55.513Z,16.33
2022-11-12T17:59:41.104Z,16.29
2022-11-12T18:02:26.541Z,16.22
2022-11-12T18:05:11.919Z,16.23
2022-11-12T18:07:57.231Z,16.23
2022-11-12T18:10:45.238Z,16.21
2022-11-12T18:13:31.091Z,16.14
2022-11-12T18:16:19.631Z,16.11
2022-11-12T18:19:06.350Z,16.06
2022-11-12T18:21:54.486Z,16.07
2022-11-12T18:24:39.902Z,16.03
2022-11-12T18:27:25.431Z,16.06
2022-11-12T18:30:16.405Z,15.96
2022-11-12T18:33:04.524Z,15.88
2022-11-12T18:36:02.129Z,15.91
2022-11-12T18:38:50.178Z,15.88
2022-11-12T18:41:35.916Z,15.88
2022-11-12T18:44:25.842Z,15.94
2022-11-12T18:47:11.579Z,15.90
2022-11-12T18:49:57.819Z,15.86
2022-11-12T18:52:43.688Z,15.78
2022-11-12T18:55:29.195Z,15.77
2022-11-12T18:58:17.910Z,15.74
2022-11-12T19:01:05.124Z,15.72
2022-11-12T19:03:55.836Z,15.71
2022-11-12T19:06:41.646Z,15.70
2022-11-12T19:09:28.275Z,15.63
2022-11-12T19:12:13.897Z,15.67
2022-11-12T19:14:59.474Z,15.63
2022-11-12T19:17:44.894Z,15.59
2022-11-12T19:21:14.333Z,15.60
2022-11-12T19:24:24.036Z,15.60
2022-11-12T19:27:11.685Z,15.73
2022-11-12T19:30:02.637Z,15.66
2022-11-12T19:32:48.701Z,15.58
2022-11-12T19:35:34.028Z,15.52
2022-11-12T19:38:19.645Z,15.50
2022-11-12T19:41:06.169Z,15.47
2022-11-12T19:43:52.469Z,15.50
2022-11-12T19:46:42.938Z,15.44
2022-11-12T19:52:57.887Z,15.37
2022-11-12T19:55:43.090Z,15.37
2022-11-12T19:58:29.713Z,15.25
2022-11-12T20:01:18.690Z,15.30
2022-11-12T20:04:04.412Z,15.33
2022-11-12T20:06:49.918Z,15.34
2022-11-12T20:09:35.230Z,15.30
2022-11-12T20:12:20.313Z,15.25
2022-11-12T20:15:07.683Z,15.22
2022-11-12T20:18:01.495Z,15.26
2022-11-12T20:21:11.448Z,15.16
2022-11-12T20:24:04.950Z,15.18
2022-11-12T20:26:50.631Z,15.27
2022-11-12T20:29:36.202Z,15.27
2022-11-12T20:32:22.797Z,15.17
2022-11-12T20:35:17.781Z,15.16
2022-11-12T20:38:05.363Z,15.17
2022-11-12T20:40:57.391Z,15.19
2022-11-12T20:43:44.546Z,15.12
2022-11-12T20:46:32.824Z,15.11
2022-11-12T20:49:18.617Z,15.04
2022-11-12T20:52:04.078Z,15.18
2022-11-12T20:54:58.388Z,15.17
2022-11-12T20:57:44.433Z,14.82
2022-11-12T21:00:29.846Z,14.95
2022-11-12T21:03:15.265Z,14.98
2022-11-12T21:06:26.446Z,15.08
2022-11-12T21:09:19.337Z,15.01
2022-11-12T21:15:23.786Z,15.05
2022-11-12T21:21:23.638Z,14.89
2022-11-12T21:24:17.517Z,14.91
2022-11-12T21:27:25.305Z,14.90
2022-11-12T21:30:11.325Z,14.84
2022-11-12T21:32:57.158Z,14.56
2022-11-12T21:36:09.471Z,14.10
2022-11-12T21:39:31.782Z,14.13
2022-11-12T21:45:26.161Z,14.37
2022-11-12T21:48:19.560Z,14.55
2022-11-12T21:51:13.874Z,14.55
2022-11-12T21:54:15.877Z,14.25
2022-11-12T21:57:16.135Z,14.21
2022-11-12T22:00:34.668Z,14.25
2022-11-12T22:03:11.930Z,14.25
2022-11-12T22:06:00.616Z,14.24
2022-11-12T22:08:50.473Z,14.42
2022-11-12T22:14:41.201Z,14.36
2022-11-12T22:17:28.736Z,14.13
2022-11-12T22:20:17.947Z,13.98
2022-11-12T22:26:25.838Z,14.01
2022-11-12T22:30:31.967Z,14.10
2022-11-12T22:32:31.328Z,14.28
2022-11-12T22:35:18.666Z,13.98
2022-11-12T22:38:12.289Z,14.10
2022-11-12T22:41:13.255Z,13.91
2022-11-12T22:44:06.440Z,14.23
2022-11-12T22:46:52.682Z,14.00
2022-11-12T22:49:41.382Z,14.15
2022-11-12T22:52:27.073Z,14.09
2022-11-12T22:55:12.201Z,14.04
2022-11-12T22:57:59.852Z,13.98
2022-11-12T23:00:45.348Z,13.94
2022-11-12T23:03:31.984Z,13.64
2022-11-12T23:06:18.199Z,13.87
2022-11-12T23:09:04.039Z,13.78
2022-11-12T23:11:49.214Z,13.52
2022-11-12T23:14:34.712Z,13.35
2022-11-12T23:17:20.597Z,13.80
2022-11-12T23:20:06.578Z,14.12
2022-11-12T23:22:52.263Z,14.20
2022-11-12T23:25:38.530Z,14.16
2022-11-12T23:28:23.943Z,14.11
2022-11-12T23:31:20.767Z,13.91
2022-11-12T23:34:06.040Z,14.02
2022-11-12T23:36:51.500Z,13.91
2022-11-12T23:39:36.984Z,13.92
2022-11-12T23:42:22.953Z,14.03
2022-11-12T23:45:08.965Z,14.00
2022-11-12T23:47:56.048Z,13.82
2022-11-12T23:50:41.832Z,13.86
2022-11-12T23:53:27.118Z,13.56
2022-11-12T23:56:14.670Z,13.71
2022-11-12T23:59:00.339Z,13.72
